Reaute Solosailor — FLRN — position and weather

sailwx.info

Track history (hours):
 
Tides and Currents Weather Stations Pressure Air Temp Water Temp Dewpoint Dewpoint Depression Visibility Wind Speed Wind Dir Waves Ship Positions

Reaute Solosailor

Last reported at 2018-Jan-10 16:38 UTC. Time now 2018-Jan-22 07:54 UTC.
Position N 28°38' W 015°31'.
Warning: this ship's position is 11 days out of date.

Length 15 m.

Type: Sailing vessel. MMSI: 228321600.

Date/timePositionNaut miles runAvg speedWind from/ knotsBaromVisibWave heightAir tempDewpointWater temp
2018-Jan-10 16:38N 28°38' W 015°31'214.5
2018-Jan-10 16:29N 28°36' W 015°29'714.4
2018-Jan-10 16:00N 28°31' W 015°25'611.9
2018-Jan-10 15:29N 28°25' W 015°21'510.8
2018-Jan-10 14:59N 28°21' W 015°18'510.8
2018-Jan-10 14:30N 28°16' W 015°15'612.3
2018-Jan-10 13:59N 28°11' W 015°12'612.9
2018-Jan-10 13:29N 28°09' W 015°19'510.7
2018-Jan-10 12:59N 28°07' W 015°25'1 1.4
2018-Jan-10 12:23N 28°08' W 015°26'0 0.0
2018-Jan-09 15:20N 28°08' W 015°26'0 0.0
2018-Jan-09 14:59N 28°08' W 015°26'1 2.1
2018-Jan-09 14:28N 28°07' W 015°24'4 8.5
2018-Jan-09 13:58N 28°09' W 015°20'510.6
2018-Jan-09 13:28N 28°10' W 015°14'4 7.7
2018-Jan-09 12:57N 28°12' W 015°10'4 8.4
2018-Jan-09 12:27N 28°11' W 015°15'3 6.6
2018-Jan-09 11:57N 28°11' W 015°19'7 0.3
2018-Jan-08 16:13N 28°08' W 015°26'1 3.0
2018-Jan-08 15:57N 28°07' W 015°25'3 5.4
2018-Jan-08 15:27N 28°09' W 015°23'611.6
2018-Jan-08 14:57N 28°15' W 015°21'611.1
2018-Jan-08 14:26N 28°17' W 015°27'2 4.6
2018-Jan-08 13:55N 28°18' W 015°25'4 8.9
2018-Jan-08 13:25N 28°16' W 015°20'3 6.3
2018-Jan-08 13:00N 28°14' W 015°21'2 4.5
2018-Jan-08 12:30N 28°14' W 015°18'3 5.7
2018-Jan-08 12:00N 28°12' W 015°18'714.0
2018-Jan-08 11:30N 28°07' W 015°24'1 2.1
2018-Jan-08 10:58N 28°08' W 015°26'0 0.0
2018-Jan-08 10:28N 28°08' W 015°26'  
Track history (hours):
 
Tides and Currents Weather Stations Pressure Air Temp Water Temp Dewpoint Dewpoint Depression Visibility Wind Speed Wind Dir Waves Ship Positions

Reaute Solosailor

Last reported at 2018-Jan-10 16:38 UTC. Time now 2018-Jan-22 07:54 UTC.
Position N 28°38' W 015°31'.
Warning: this ship's position is 11 days out of date.

Length 15 m.

Type: Sailing vessel. MMSI: 228321600.

Date/timePositionNaut miles runAvg speedWind from/ knotsBaromVisibWave heightAir tempDewpointWater temp
2018-Jan-10 16:38N 28°38' W 015°31'214.5
2018-Jan-10 16:29N 28°36' W 015°29'714.4
2018-Jan-10 16:00N 28°31' W 015°25'611.9
2018-Jan-10 15:29N 28°25' W 015°21'510.8
2018-Jan-10 14:59N 28°21' W 015°18'510.8
2018-Jan-10 14:30N 28°16' W 015°15'612.3
2018-Jan-10 13:59N 28°11' W 015°12'612.9
2018-Jan-10 13:29N 28°09' W 015°19'510.7
2018-Jan-10 12:59N 28°07' W 015°25'1 1.4
2018-Jan-10 12:23N 28°08' W 015°26'0 0.0
2018-Jan-09 15:20N 28°08' W 015°26'0 0.0
2018-Jan-09 14:59N 28°08' W 015°26'1 2.1
2018-Jan-09 14:28N 28°07' W 015°24'4 8.5
2018-Jan-09 13:58N 28°09' W 015°20'510.6
2018-Jan-09 13:28N 28°10' W 015°14'4 7.7
2018-Jan-09 12:57N 28°12' W 015°10'4 8.4
2018-Jan-09 12:27N 28°11' W 015°15'3 6.6
2018-Jan-09 11:57N 28°11' W 015°19'7 0.3
2018-Jan-08 16:13N 28°08' W 015°26'1 3.0
2018-Jan-08 15:57N 28°07' W 015°25'3 5.4
2018-Jan-08 15:27N 28°09' W 015°23'611.6
2018-Jan-08 14:57N 28°15' W 015°21'611.1
2018-Jan-08 14:26N 28°17' W 015°27'2 4.6
2018-Jan-08 13:55N 28°18' W 015°25'4 8.9
2018-Jan-08 13:25N 28°16' W 015°20'3 6.3
2018-Jan-08 13:00N 28°14' W 015°21'2 4.5
2018-Jan-08 12:30N 28°14' W 015°18'3 5.7
2018-Jan-08 12:00N 28°12' W 015°18'714.0
2018-Jan-08 11:30N 28°07' W 015°24'1 2.1
2018-Jan-08 10:58N 28°08' W 015°26'0 0.0
2018-Jan-08 10:28N 28°08' W 015°26'  

Dump ship's entire track history